Time;durP1;ratioP1;P1;durP2;ratioP2;P2;SDS_P1;SDS_P2;PMS_P1;PMS_P2;Temp;Humidity;BMP_temperature;BMP_pressure;BME280_temperature;BME280_humidity;BME280_pressure;Samples;Min_cycle;Max_cycle;Signal;HPM_P1;HPM_P2
2021/07/06 00:01:00;;;;;;;4.20;3.13;;;19.50;99.90;;;;;;4996127;28;20465;-67
2021/07/06 00:03:27;;;;;;;4.67;3.43;;;19.50;99.90;;;;;;5005689;28;20834;-66
2021/07/06 00:05:54;;;;;;;5.80;3.57;;;19.40;99.90;;;;;;5010525;28;20487;-67
2021/07/06 00:08:23;;;;;;;4.13;3.60;;;19.40;99.90;;;;;;5002713;28;20934;-66
2021/07/06 00:10:50;;;;;;;4.70;3.17;;;19.40;99.90;;;;;;4994749;28;20831;-65
2021/07/06 00:13:18;;;;;;;2.70;2.50;;;19.40;99.90;;;;;;5004461;28;20478;-66
2021/07/06 00:15:45;;;;;;;3.60;2.87;;;19.30;99.90;;;;;;4998773;28;20445;-66
2021/07/06 00:18:12;;;;;;;7.50;4.50;;;19.20;99.90;;;;;;5003751;28;20451;-65
2021/07/06 00:20:39;;;;;;;4.50;3.40;;;19.20;99.90;;;;;;4996809;28;20441;-66
2021/07/06 00:23:07;;;;;;;5.50;3.50;;;19.20;99.90;;;;;;4994697;28;20868;-67
2021/07/06 00:25:35;;;;;;;11.73;4.50;;;19.10;99.90;;;;;;4995881;28;20986;-66
2021/07/06 00:28:02;;;;;;;5.80;4.00;;;19.20;99.90;;;;;;5001615;28;21311;-64
2021/07/06 00:30:29;;;;;;;4.07;3.60;;;19.10;99.90;;;;;;5000644;28;20459;-66
2021/07/06 00:32:57;;;;;;;8.27;3.93;;;19.10;99.90;;;;;;5003259;28;20449;-65
2021/07/06 00:35:24;;;;;;;5.30;3.50;;;19.10;99.90;;;;;;4997820;28;20479;-65
2021/07/06 00:37:52;;;;;;;5.83;4.10;;;19.00;99.90;;;;;;4986929;28;20445;-65
2021/07/06 00:40:19;;;;;;;3.93;3.53;;;19.00;99.90;;;;;;4996695;28;20451;-66
2021/07/06 00:42:50;;;;;;;5.87;4.40;;;19.00;99.90;;;;;;5003052;28;20828;-64
2021/07/06 00:45:18;;;;;;;3.80;3.50;;;19.00;99.90;;;;;;5000420;28;20473;-66
2021/07/06 00:47:46;;;;;;;3.83;3.43;;;19.10;99.90;;;;;;5007737;28;20491;-65
2021/07/06 00:50:15;;;;;;;5.53;3.70;;;19.00;99.90;;;;;;5012648;28;20502;-66
2021/07/06 00:52:43;;;;;;;4.63;3.20;;;19.00;99.90;;;;;;5000581;28;20956;-64
2021/07/06 00:55:11;;;;;;;4.80;4.27;;;19.00;99.90;;;;;;5001061;28;20484;-65
2021/07/06 00:57:38;;;;;;;6.70;4.13;;;19.00;99.90;;;;;;4996633;28;20451;-65
2021/07/06 01:00:10;;;;;;;5.10;4.13;;;19.00;99.90;;;;;;4995904;28;20463;-66
2021/07/06 01:02:37;;;;;;;3.83;2.80;;;19.00;99.90;;;;;;4998848;28;20794;-65
2021/07/06 01:05:05;;;;;;;4.03;3.27;;;19.00;99.90;;;;;;4990644;28;20488;-65
2021/07/06 01:07:32;;;;;;;4.00;3.50;;;18.90;99.90;;;;;;4994426;28;20484;-65
2021/07/06 01:10:00;;;;;;;3.90;3.53;;;19.00;99.90;;;;;;4999581;28;20460;-66
2021/07/06 01:12:31;;;;;;;6.50;3.73;;;19.00;99.90;;;;;;4993863;28;20456;-64
2021/07/06 01:14:58;;;;;;;5.67;3.57;;;19.00;99.90;;;;;;5000995;28;21003;-65
2021/07/06 01:17:31;;;;;;;5.03;3.93;;;19.00;99.90;;;;;;4999896;28;20444;-65
2021/07/06 01:19:59;;;;;;;10.33;4.50;;;18.90;99.90;;;;;;5000515;28;20462;-67
2021/07/06 01:22:28;;;;;;;6.73;3.43;;;18.90;99.90;;;;;;4995796;28;20452;-66
2021/07/06 01:24:56;;;;;;;4.30;3.67;;;18.90;99.90;;;;;;4992207;28;20492;-64
2021/07/06 01:27:23;;;;;;;3.67;3.20;;;18.90;99.90;;;;;;4999604;28;20510;-65
2021/07/06 01:29:50;;;;;;;4.30;3.90;;;19.00;99.90;;;;;;5012628;28;20889;-66
2021/07/06 01:32:17;;;;;;;5.30;4.37;;;19.00;99.90;;;;;;4997094;28;20950;-64
2021/07/06 01:34:44;;;;;;;4.90;3.67;;;19.00;99.90;;;;;;5001016;28;20471;-65
2021/07/06 01:37:16;;;;;;;5.90;3.50;;;18.90;99.90;;;;;;4994210;28;20441;-66
2021/07/06 01:39:44;;;;;;;5.03;4.43;;;19.00;99.90;;;;;;5001374;28;20448;-65
2021/07/06 01:42:15;;;;;;;3.97;3.67;;;18.90;99.90;;;;;;5008039;28;20621;-65
2021/07/06 01:44:42;;;;;;;4.03;3.67;;;18.90;99.90;;;;;;4997468;28;20493;-66
2021/07/06 01:47:09;;;;;;;4.83;3.83;;;18.90;99.90;;;;;;5001017;28;20891;-65
2021/07/06 01:49:36;;;;;;;4.03;3.40;;;18.90;99.90;;;;;;4992033;28;20448;-66
2021/07/06 01:52:04;;;;;;;5.60;3.50;;;18.90;99.90;;;;;;4992970;28;20448;-66
2021/07/06 01:54:31;;;;;;;4.47;4.03;;;18.90;99.90;;;;;;4998147;28;20953;-66
2021/07/06 01:57:00;;;;;;;4.70;3.63;;;18.90;99.90;;;;;;5000542;28;20821;-66
2021/07/06 01:59:27;;;;;;;5.63;4.40;;;18.90;99.90;;;;;;4994330;28;20452;-66
2021/07/06 02:01:54;;;;;;;3.73;3.43;;;18.90;99.90;;;;;;4990101;28;20438;-67
2021/07/06 02:04:21;;;;;;;4.80;4.30;;;18.90;99.90;;;;;;5000232;28;20457;-67
2021/07/06 02:06:48;;;;;;;4.57;4.17;;;18.90;99.90;;;;;;5000658;28;20837;-66
2021/07/06 02:09:15;;;;;;;5.60;3.93;;;19.00;99.90;;;;;;5001317;28;20456;-66
2021/07/06 02:11:44;;;;;;;3.97;3.67;;;18.90;99.90;;;;;;4997397;28;20457;-66
2021/07/06 02:14:15;;;;;;;8.40;4.83;;;19.00;99.90;;;;;;5001381;28;20913;-66
2021/07/06 02:16:42;;;;;;;4.63;4.23;;;19.00;99.90;;;;;;5005881;28;20551;-66
2021/07/06 02:19:09;;;;;;;6.37;4.53;;;18.90;99.90;;;;;;4998860;28;20480;-64
2021/07/06 02:21:36;;;;;;;4.20;3.90;;;18.90;99.90;;;;;;5002301;28;20940;-66
2021/07/06 02:24:03;;;;;;;5.90;4.40;;;18.80;99.90;;;;;;5002519;28;20480;-66
2021/07/06 02:26:30;;;;;;;4.60;4.17;;;18.80;99.90;;;;;;4995386;28;20491;-67
2021/07/06 02:28:57;;;;;;;5.60;5.10;;;18.80;99.90;;;;;;5001120;28;20873;-68
2021/07/06 02:31:26;;;;;;;4.07;3.73;;;18.80;99.90;;;;;;4984887;28;20452;-66
2021/07/06 02:33:53;;;;;;;4.70;3.87;;;18.80;99.90;;;;;;4990580;28;20472;-66
2021/07/06 02:36:20;;;;;;;4.40;4.00;;;18.80;99.90;;;;;;5002918;28;20510;-67
2021/07/06 02:38:47;;;;;;;13.10;4.70;;;18.80;99.90;;;;;;5001790;28;21573;-66
2021/07/06 02:41:14;;;;;;;8.30;5.57;;;18.90;99.90;;;;;;5002229;28;20448;-67
2021/07/06 02:43:41;;;;;;;4.80;3.90;;;18.80;99.90;;;;;;5000101;28;20469;-65
2021/07/06 02:46:08;;;;;;;5.90;4.57;;;18.70;99.90;;;;;;4999108;28;20855;-66
2021/07/06 02:48:38;;;;;;;5.57;5.07;;;18.70;99.90;;;;;;5007020;28;20480;-64
2021/07/06 02:51:05;;;;;;;4.70;4.30;;;18.70;99.90;;;;;;5005223;28;20898;-65
2021/07/06 02:53:32;;;;;;;5.17;4.13;;;18.70;99.90;;;;;;5000527;28;20576;-65
2021/07/06 02:55:59;;;;;;;5.20;4.70;;;18.70;99.90;;;;;;5008723;28;20820;-66
2021/07/06 02:58:26;;;;;;;5.30;4.70;;;18.60;99.90;;;;;;5003075;28;20499;-66
2021/07/06 03:00:53;;;;;;;4.13;3.70;;;18.70;99.90;;;;;;5002882;28;20489;-66
2021/07/06 03:03:20;;;;;;;4.37;4.07;;;18.60;99.90;;;;;;5006285;28;20851;-65
2021/07/06 03:05:48;;;;;;;4.80;3.90;;;18.70;99.90;;;;;;5009061;28;20456;-65
2021/07/06 03:08:15;;;;;;;4.77;4.23;;;18.70;99.90;;;;;;4997706;28;20851;-65
2021/07/06 03:10:42;;;;;;;6.73;4.60;;;18.80;99.90;;;;;;4994647;28;20457;-64
2021/07/06 03:13:09;;;;;;;6.63;4.80;;;18.70;99.90;;;;;;4999451;28;20465;-64
2021/07/06 03:15:37;;;;;;;6.97;4.23;;;18.70;99.90;;;;;;5008499;28;20456;-65
2021/07/06 03:18:06;;;;;;;4.67;4.20;;;18.70;99.90;;;;;;5005591;28;20448;-65
2021/07/06 03:20:34;;;;;;;4.50;4.13;;;18.70;99.90;;;;;;5001036;28;20956;-66
2021/07/06 03:23:04;;;;;;;4.20;3.90;;;18.70;99.90;;;;;;5002381;28;20511;-65
2021/07/06 03:25:32;;;;;;;4.90;4.47;;;18.80;99.90;;;;;;4999847;28;20815;-66
2021/07/06 03:28:00;;;;;;;5.43;4.93;;;18.80;99.90;;;;;;4999517;28;20483;-65
2021/07/06 03:30:32;;;;;;;4.27;3.70;;;18.80;99.90;;;;;;5006305;28;20452;-65
2021/07/06 03:33:00;;;;;;;5.03;4.53;;;18.80;99.90;;;;;;4998413;28;20449;-65
2021/07/06 03:35:28;;;;;;;5.27;4.77;;;18.70;99.90;;;;;;4990160;28;20444;-66
2021/07/06 03:37:55;;;;;;;6.67;4.63;;;18.80;99.90;;;;;;5006180;28;20455;-67
2021/07/06 03:40:24;;;;;;;4.97;4.47;;;18.80;99.90;;;;;;4998311;28;20453;-66
2021/07/06 03:42:52;;;;;;;5.07;4.67;;;18.80;99.90;;;;;;5002398;28;20931;-66
2021/07/06 03:45:21;;;;;;;5.40;4.10;;;18.80;99.90;;;;;;4999067;28;20881;-67
2021/07/06 03:47:49;;;;;;;8.80;5.87;;;18.80;99.90;;;;;;5000229;28;20487;-66
2021/07/06 03:50:18;;;;;;;5.47;4.70;;;18.80;99.90;;;;;;5005626;28;20490;-66
2021/07/06 03:52:46;;;;;;;5.20;4.80;;;18.80;99.90;;;;;;5006480;28;20483;-67
2021/07/06 03:55:14;;;;;;;5.40;4.10;;;18.90;99.90;;;;;;4993753;28;20496;-66
2021/07/06 03:57:42;;;;;;;4.40;4.03;;;18.90;99.90;;;;;;5008473;28;20567;-65
2021/07/06 04:00:11;;;;;;;5.07;4.67;;;18.90;99.90;;;;;;5005332;28;20460;-66
2021/07/06 04:02:38;;;;;;;5.07;4.30;;;18.90;99.90;;;;;;4999791;28;20458;-67
2021/07/06 04:05:07;;;;;;;5.83;3.90;;;18.90;99.90;;;;;;4997916;28;20469;-66
2021/07/06 04:07:35;;;;;;;4.93;4.53;;;18.90;99.90;;;;;;5010264;28;20490;-65
2021/07/06 04:10:04;;;;;;;4.57;4.23;;;18.90;99.90;;;;;;5003327;28;20452;-66
2021/07/06 04:12:31;;;;;;;7.43;4.77;;;19.00;99.90;;;;;;5001527;28;20456;-65
2021/07/06 04:14:59;;;;;;;4.70;4.20;;;18.90;99.90;;;;;;5006960;28;20469;-66
2021/07/06 04:17:26;;;;;;;8.50;4.37;;;19.00;99.90;;;;;;5006162;28;20458;-67
2021/07/06 04:19:56;;;;;;;7.57;4.00;;;19.00;99.90;;;;;;4993867;28;20452;-66
2021/07/06 04:22:23;;;;;;;4.40;3.90;;;19.00;99.90;;;;;;4986127;28;20492;-66
2021/07/06 04:24:50;;;;;;;4.60;4.30;;;19.10;99.90;;;;;;5004389;28;20480;-66
2021/07/06 04:27:17;;;;;;;5.00;4.50;;;19.10;99.90;;;;;;4996067;28;20499;-66
2021/07/06 04:29:46;;;;;;;6.80;4.27;;;19.10;99.90;;;;;;4996754;28;20946;-66
2021/07/06 04:32:16;;;;;;;5.30;4.80;;;19.20;99.90;;;;;;5002384;28;20480;-67
2021/07/06 04:34:43;;;;;;;4.30;3.87;;;19.30;99.90;;;;;;4998934;28;21044;-67
2021/07/06 04:37:10;;;;;;;4.80;4.40;;;19.50;99.90;;;;;;5001382;28;20441;-65
2021/07/06 04:39:37;;;;;;;3.83;3.40;;;19.90;99.90;;;;;;5002884;28;20460;-67
2021/07/06 04:42:05;;;;;;;6.00;3.40;;;20.70;99.90;;;;;;5006267;28;20465;-68
2021/07/06 04:44:32;;;;;;;4.00;2.90;;;21.20;99.90;;;;;;5000197;28;20516;-66
2021/07/06 04:46:59;;;;;;;4.20;3.80;;;21.30;99.90;;;;;;5000164;28;20461;-65
2021/07/06 04:49:28;;;;;;;7.90;3.30;;;21.10;99.90;;;;;;5000086;28;20464;-65
2021/07/06 04:51:55;;;;;;;2.70;2.50;;;20.90;99.90;;;;;;5007958;28;20460;-67
2021/07/06 04:54:24;;;;;;;3.53;3.23;;;20.60;99.90;;;;;;5005344;28;20984;-67
2021/07/06 04:56:52;;;;;;;4.80;2.60;;;20.40;99.90;;;;;;5002039;28;20452;-67
2021/07/06 04:59:19;;;;;;;3.77;3.30;;;20.20;99.90;;;;;;4996195;28;20479;-65
2021/07/06 05:01:46;;;;;;;4.33;3.90;;;20.20;99.90;;;;;;5007094;28;20456;-66
2021/07/06 05:04:14;;;;;;;3.53;3.10;;;20.00;99.90;;;;;;5008906;28;20687;-66
2021/07/06 05:06:43;;;;;;;3.73;3.33;;;19.90;99.90;;;;;;5005778;28;20451;-68
2021/07/06 05:25:36;;;;;;;3.83;3.10;;;20.10;99.90;;;;;;4997278;23;20490;-78
2021/07/06 05:28:03;;;;;;;3.50;2.77;;;20.30;99.90;;;;;;5002219;28;20487;-77
2021/07/06 05:30:39;;;;;;;4.57;3.10;;;20.40;99.90;;;;;;4990095;28;20446;-77
2021/07/06 05:33:06;;;;;;;3.57;3.23;;;20.60;99.90;;;;;;4995751;28;20448;-78
2021/07/06 05:35:34;;;;;;;5.80;3.37;;;20.70;99.90;;;;;;4993519;28;20463;-79
2021/07/06 05:38:03;;;;;;;3.53;3.03;;;20.80;99.90;;;;;;4995949;28;20465;-78
2021/07/06 05:40:33;;;;;;;3.47;2.80;;;21.00;99.90;;;;;;4994063;28;20501;-79
2021/07/06 05:43:04;;;;;;;4.00;2.73;;;21.10;99.90;;;;;;4985144;28;20505;-80
2021/07/06 05:45:33;;;;;;;2.73;2.30;;;21.20;99.90;;;;;;4987875;28;20483;-80
2021/07/06 05:48:01;;;;;;;5.07;2.40;;;21.10;99.90;;;;;;4993689;28;20490;-81
2021/07/06 05:50:28;;;;;;;11.17;2.50;;;21.30;99.90;;;;;;4999471;28;20455;-81
2021/07/06 05:52:55;;;;;;;2.43;1.90;;;22.20;99.90;;;;;;4996836;28;20499;-79
2021/07/06 05:55:23;;;;;;;2.00;1.60;;;23.80;99.90;;;;;;4995400;28;20548;-80
2021/07/06 05:57:50;;;;;;;3.50;1.90;;;24.70;99.90;;;;;;4986554;28;20470;-82
2021/07/06 06:00:20;;;;;;;5.57;2.40;;;24.40;99.90;;;;;;5001368;28;20476;-83
2021/07/06 06:02:48;;;;;;;2.70;1.57;;;24.10;99.90;;;;;;4988052;28;20521;-80
2021/07/06 06:05:15;;;;;;;4.20;2.10;;;24.00;99.90;;;;;;4988951;28;20477;-79
2021/07/06 06:07:44;;;;;;;4.70;2.00;;;23.80;99.90;;;;;;4989930;28;20487;-76
2021/07/06 06:10:13;;;;;;;1.90;1.70;;;23.90;99.90;;;;;;4995094;28;20473;-75
2021/07/06 06:12:41;;;;;;;1.60;1.50;;;24.30;99.90;;;;;;4994902;28;20450;-77
2021/07/06 06:15:10;;;;;;;2.60;1.87;;;24.20;99.90;;;;;;4991424;28;20571;-75
2021/07/06 06:17:41;;;;;;;4.27;1.50;;;24.00;99.90;;;;;;4986271;28;20441;-79
2021/07/06 06:20:12;;;;;;;2.30;1.63;;;23.80;99.90;;;;;;4992070;28;20441;-82
2021/07/06 06:22:39;;;;;;;2.93;1.87;;;23.60;99.90;;;;;;4984149;28;20460;-77
2021/07/06 06:25:08;;;;;;;2.47;1.60;;;23.60;99.90;;;;;;4988647;28;20476;-77
2021/07/06 06:27:35;;;;;;;2.30;1.30;;;23.60;99.90;;;;;;4995792;28;20449;-76
2021/07/06 06:30:03;;;;;;;1.70;1.60;;;23.80;99.90;;;;;;4997463;28;20507;-77
2021/07/06 06:32:31;;;;;;;3.23;1.50;;;24.00;99.90;;;;;;4993950;28;20452;-77
2021/07/06 06:34:59;;;;;;;4.30;1.30;;;24.10;99.90;;;;;;4996237;28;20526;-78
2021/07/06 06:37:28;;;;;;;1.47;1.37;;;24.30;99.90;;;;;;4993721;28;20445;-78
2021/07/06 06:39:55;;;;;;;3.43;1.30;;;24.30;99.90;;;;;;4989821;28;20448;-77
2021/07/06 06:42:22;;;;;;;1.37;1.27;;;24.40;99.90;;;;;;4987421;28;20776;-78
2021/07/06 06:44:49;;;;;;;2.63;1.47;;;24.70;99.90;;;;;;4995494;28;20464;-78
2021/07/06 06:47:17;;;;;;;4.70;1.80;;;24.50;99.90;;;;;;4993625;28;20532;-77
2021/07/06 06:49:44;;;;;;;2.97;1.20;;;24.60;99.90;;;;;;4993106;28;20468;-77
2021/07/06 06:52:13;;;;;;;6.97;1.90;;;24.50;99.90;;;;;;4993961;28;20529;-77
2021/07/06 06:54:40;;;;;;;4.33;2.30;;;24.40;99.90;;;;;;4996894;28;20464;-76
2021/07/06 06:57:08;;;;;;;1.40;1.00;;;24.40;99.90;;;;;;4985478;28;20458;-79
2021/07/06 06:59:35;;;;;;;4.70;1.87;;;24.90;99.90;;;;;;4997716;28;20479;-77
2021/07/06 07:02:18;;;;;;;2.60;1.67;;;26.00;99.90;;;;;;4989113;28;20448;-78
2021/07/06 07:04:45;;;;;;;2.43;1.50;;;26.70;99.90;;;;;;4988937;28;20473;-78
2021/07/06 07:07:14;;;;;;;1.70;1.40;;;25.90;99.90;;;;;;4992502;28;20539;-78
2021/07/06 07:09:42;;;;;;;2.87;1.53;;;25.70;99.90;;;;;;4995527;28;20484;-77
2021/07/06 07:12:10;;;;;;;1.87;1.60;;;25.50;99.90;;;;;;4988407;28;20491;-78
2021/07/06 07:14:38;;;;;;;2.80;1.60;;;24.90;99.90;;;;;;4997502;28;20929;-80
2021/07/06 07:17:06;;;;;;;1.40;1.30;;;24.80;99.90;;;;;;4995961;28;20451;-78
2021/07/06 07:19:33;;;;;;;3.87;1.40;;;24.60;99.90;;;;;;4992907;28;20534;-78
2021/07/06 07:22:02;;;;;;;1.83;1.43;;;24.30;99.90;;;;;;4998022;28;20947;-78
2021/07/06 07:24:30;;;;;;;5.00;1.40;;;24.20;99.90;;;;;;4989251;28;20478;-76
2021/07/06 07:26:59;;;;;;;2.63;1.30;;;24.30;99.90;;;;;;4992925;28;20564;-77
2021/07/06 07:29:26;;;;;;;5.03;1.97;;;24.30;99.90;;;;;;4994139;28;20821;-76
2021/07/06 07:31:54;;;;;;;2.50;1.60;;;24.10;99.90;;;;;;4996046;28;20447;-79
2021/07/06 07:34:21;;;;;;;2.90;1.77;;;23.80;99.90;;;;;;4991437;28;20552;-75
2021/07/06 07:36:48;;;;;;;2.90;2.20;;;23.70;99.90;;;;;;4991400;28;21023;-77
2021/07/06 07:39:16;;;;;;;6.50;2.03;;;23.10;99.90;;;;;;4992921;28;20441;-75
2021/07/06 07:41:44;;;;;;;1.97;1.63;;;22.80;99.90;;;;;;4984208;28;20449;-77
2021/07/06 07:44:12;;;;;;;4.83;1.87;;;22.50;99.90;;;;;;4986610;28;21034;-75
2021/07/06 07:46:40;;;;;;;2.50;1.70;;;22.40;99.90;;;;;;4989317;28;20453;-77
2021/07/06 07:49:07;;;;;;;5.03;2.00;;;22.20;99.90;;;;;;4985925;28;20514;-76
2021/07/06 07:51:34;;;;;;;2.17;1.60;;;22.20;99.90;;;;;;4994484;28;20543;-78
2021/07/06 07:54:02;;;;;;;2.20;1.60;;;22.30;99.90;;;;;;4993106;28;20976;-77
2021/07/06 07:56:29;;;;;;;2.30;1.77;;;22.50;99.90;;;;;;4992404;28;20441;-77
2021/07/06 07:58:57;;;;;;;1.87;1.47;;;23.50;99.90;;;;;;4995203;28;20455;-79
2021/07/06 08:01:26;;;;;;;1.97;1.10;;;25.60;99.90;;;;;;4995530;28;20453;-77
2021/07/06 08:03:53;;;;;;;4.83;1.80;;;27.90;99.90;;;;;;4992740;28;20491;-79
2021/07/06 08:06:20;;;;;;;2.40;1.37;;;29.70;99.90;;;;;;4994457;28;20956;-78
2021/07/06 08:08:47;;;;;;;4.20;1.60;;;31.30;96.10;;;;;;4994734;28;20487;-78
2021/07/06 08:11:14;;;;;;;3.33;1.63;;;31.90;93.60;;;;;;4990122;28;20911;-78
2021/07/06 08:13:42;;;;;;;2.80;1.60;;;31.60;92.90;;;;;;4994166;28;20475;-77
2021/07/06 08:16:11;;;;;;;5.20;1.30;;;31.70;92.80;;;;;;4989177;28;20672;-78
2021/07/06 08:18:38;;;;;;;3.00;1.50;;;32.10;91.50;;;;;;4989798;28;20493;-77
2021/07/06 08:21:05;;;;;;;4.93;1.43;;;33.00;90.80;;;;;;4984230;28;20464;-78
2021/07/06 08:23:33;;;;;;;2.83;1.30;;;33.00;89.30;;;;;;4994938;28;20544;-77
2021/07/06 08:26:00;;;;;;;1.60;1.50;;;31.20;90.70;;;;;;4996408;28;20468;-77
2021/07/06 08:28:28;;;;;;;6.97;2.43;;;31.60;91.20;;;;;;4987595;28;20477;-77
2021/07/06 08:30:56;;;;;;;3.43;1.47;;;31.90;91.30;;;;;;4992138;28;20454;-77
2021/07/06 08:33:25;;;;;;;4.97;1.50;;;31.90;90.20;;;;;;4983174;28;20452;-77
2021/07/06 08:35:52;;;;;;;5.73;2.30;;;31.20;90.30;;;;;;4992741;28;20507;-77
2021/07/06 08:38:19;;;;;;;2.50;1.10;;;30.30;91.60;;;;;;4995927;28;20445;-77
2021/07/06 08:40:49;;;;;;;5.20;1.37;;;29.80;92.90;;;;;;4995196;28;20516;-78
2021/07/06 08:43:17;;;;;;;6.10;1.83;;;29.30;93.90;;;;;;4987343;28;20484;-77
2021/07/06 08:45:45;;;;;;;2.63;1.40;;;28.50;95.60;;;;;;4995628;28;20508;-78
2021/07/06 08:48:12;;;;;;;5.03;2.40;;;27.90;96.60;;;;;;4996448;28;20452;-76
2021/07/06 08:50:42;;;;;;;3.50;1.93;;;27.20;98.10;;;;;;4994881;28;20612;-77
2021/07/06 08:53:12;;;;;;;3.10;2.03;;;27.10;98.80;;;;;;4998047;28;20447;-79
2021/07/06 08:55:39;;;;;;;4.40;1.60;;;27.00;98.70;;;;;;4988003;28;20462;-76
2021/07/06 08:58:06;;;;;;;4.07;1.80;;;26.60;99.00;;;;;;4991291;28;20456;-77
2021/07/06 09:00:33;;;;;;;3.23;1.67;;;26.70;99.30;;;;;;4984509;28;20452;-77
2021/07/06 09:03:03;;;;;;;1.80;1.50;;;26.40;99.90;;;;;;4991998;28;20452;-76
2021/07/06 09:05:32;;;;;;;3.47;1.33;;;26.20;99.50;;;;;;4992590;28;20986;-78
2021/07/06 09:08:01;;;;;;;3.10;1.80;;;26.00;99.30;;;;;;4996037;28;20990;-77
2021/07/06 09:10:33;;;;;;;3.53;1.53;;;25.70;98.90;;;;;;4990866;28;20485;-76
2021/07/06 09:13:01;;;;;;;5.00;2.03;;;25.40;99.90;;;;;;4994584;28;20462;-75
2021/07/06 09:15:31;;;;;;;2.40;1.60;;;25.40;99.90;;;;;;4987094;28;20465;-75
2021/07/06 09:18:09;;;;;;;5.40;1.50;;;25.10;99.90;;;;;;4988368;28;20452;-78
2021/07/06 09:20:37;;;;;;;2.07;1.27;;;24.90;99.90;;;;;;4992761;28;20487;-75
2021/07/06 09:23:25;;;;;;;5.27;1.57;;;24.80;99.90;;;;;;4987734;28;20513;-78
2021/07/06 09:26:07;;;;;;;1.80;1.07;;;24.80;99.90;;;;;;4988883;28;20449;-77
2021/07/06 09:28:36;;;;;;;6.43;1.20;;;24.70;99.90;;;;;;4991100;28;20527;-76
2021/07/06 09:31:26;;;;;;;3.67;1.67;;;24.50;99.90;;;;;;4988193;28;20917;-76
2021/07/06 09:33:57;;;;;;;2.03;1.23;;;24.50;99.90;;;;;;4989641;28;20479;-77
2021/07/06 09:36:36;;;;;;;1.50;1.40;;;24.20;99.90;;;;;;4991635;28;20475;-76
2021/07/06 09:39:08;;;;;;;6.33;1.20;;;24.20;99.90;;;;;;4984590;28;20452;-76
2021/07/06 09:41:37;;;;;;;2.60;1.30;;;24.10;99.90;;;;;;4993123;28;20463;-77
2021/07/06 09:44:21;;;;;;;3.27;1.60;;;24.00;99.90;;;;;;4992595;28;20466;-77
2021/07/06 09:46:55;;;;;;;1.93;1.10;;;23.80;99.90;;;;;;4985968;28;20862;-77
2021/07/06 09:49:24;;;;;;;1.40;1.27;;;23.40;99.90;;;;;;4990203;28;20544;-76
2021/07/06 09:51:53;;;;;;;2.30;1.33;;;23.10;99.90;;;;;;4994001;28;20844;-78
2021/07/06 09:54:33;;;;;;;1.97;1.73;;;22.90;99.90;;;;;;4992222;28;20543;-79
2021/07/06 09:57:13;;;;;;;2.70;1.50;;;22.80;99.90;;;;;;4991875;28;20819;-77
2021/07/06 10:00:03;;;;;;;5.43;1.80;;;22.80;99.90;;;;;;4991038;28;20801;-77
2021/07/06 10:02:32;;;;;;;6.70;1.53;;;22.50;99.90;;;;;;4990839;28;20484;-77
2021/07/06 10:05:04;;;;;;;3.27;1.03;;;22.40;99.90;;;;;;4993050;28;20471;-78
2021/07/06 10:07:32;;;;;;;1.90;1.70;;;22.50;99.90;;;;;;4981332;28;20442;-76
2021/07/06 10:10:01;;;;;;;2.10;1.40;;;22.50;99.90;;;;;;4992246;28;20487;-77
2021/07/06 10:12:29;;;;;;;2.03;1.80;;;22.50;99.90;;;;;;4994802;28;20539;-76
2021/07/06 10:14:58;;;;;;;1.43;1.30;;;22.50;99.90;;;;;;4986241;28;20469;-75
2021/07/06 10:17:26;;;;;;;2.07;1.30;;;22.50;99.90;;;;;;4987207;28;20541;-77
2021/07/06 10:19:53;;;;;;;1.67;1.20;;;22.60;99.90;;;;;;4989097;28;20480;-77
2021/07/06 10:22:20;;;;;;;3.97;1.70;;;22.50;99.90;;;;;;4992075;28;20974;-77
2021/07/06 10:24:49;;;;;;;5.10;1.30;;;22.50;99.90;;;;;;4990797;28;20476;-78
2021/07/06 10:27:22;;;;;;;4.27;1.90;;;22.40;99.90;;;;;;4986476;28;20548;-77
2021/07/06 10:30:05;;;;;;;2.30;1.40;;;22.50;99.90;;;;;;4983770;28;20488;-77
2021/07/06 10:32:43;;;;;;;1.80;1.10;;;22.40;99.90;;;;;;4991202;28;21014;-76
2021/07/06 10:35:13;;;;;;;3.40;1.30;;;22.40;99.90;;;;;;4990555;28;20549;-77
2021/07/06 10:37:40;;;;;;;2.37;1.10;;;22.50;99.90;;;;;;4985061;28;20537;-76
2021/07/06 10:40:19;;;;;;;1.60;1.00;;;22.40;99.90;;;;;;4984909;28;20453;-77
2021/07/06 10:42:50;;;;;;;2.60;1.03;;;22.30;99.90;;;;;;4974688;28;20877;-77
2021/07/06 10:45:21;;;;;;;2.17;1.33;;;22.20;99.90;;;;;;4987183;28;20471;-77
2021/07/06 10:47:49;;;;;;;1.67;1.40;;;22.40;99.90;;;;;;4992486;28;20959;-76
2021/07/06 10:50:50;;;;;;;3.37;1.20;;;22.50;99.90;;;;;;4990092;28;20472;-77
2021/07/06 10:53:23;;;;;;;1.73;1.40;;;22.50;99.90;;;;;;4978150;28;20948;-76
2021/07/06 10:56:05;;;;;;;1.43;1.30;;;22.50;99.90;;;;;;4987834;28;20448;-76
2021/07/06 10:58:54;;;;;;;2.13;1.17;;;22.40;99.90;;;;;;4988441;28;20460;-78
2021/07/06 11:01:57;;;;;;;2.80;1.23;;;22.40;99.90;;;;;;4984376;28;20535;-77
2021/07/06 11:04:53;;;;;;;1.50;1.37;;;22.50;99.90;;;;;;4973970;28;20826;-77
2021/07/06 11:07:57;;;;;;;6.17;2.17;;;22.50;99.90;;;;;;4950837;28;20483;-77
2021/07/06 11:10:37;;;;;;;1.60;1.00;;;22.60;99.90;;;;;;4995459;28;20512;-77
2021/07/06 11:13:17;;;;;;;3.80;1.30;;;22.70;99.90;;;;;;4995218;28;20947;-79
2021/07/06 11:15:46;;;;;;;1.30;1.03;;;22.40;99.90;;;;;;4991132;28;20472;-80
2021/07/06 11:18:15;;;;;;;4.20;1.27;;;22.50;99.90;;;;;;4994135;28;20432;-77
2021/07/06 11:20:44;;;;;;;1.83;1.37;;;22.50;99.90;;;;;;4994256;28;20444;-77
2021/07/06 11:23:16;;;;;;;2.07;1.37;;;22.60;99.90;;;;;;4995424;28;20503;-77
2021/07/06 11:25:48;;;;;;;1.73;1.17;;;22.60;99.90;;;;;;4987226;28;20464;-78
2021/07/06 11:28:24;;;;;;;1.20;1.03;;;22.60;99.90;;;;;;4986763;28;20885;-77
2021/07/06 11:30:54;;;;;;;3.97;2.30;;;22.80;99.90;;;;;;4980744;28;20485;-77
2021/07/06 11:33:23;;;;;;;8.93;2.13;;;22.70;99.90;;;;;;4995121;28;20530;-78
2021/07/06 11:35:52;;;;;;;1.90;1.13;;;22.70;99.90;;;;;;4982644;28;20456;-78
2021/07/06 11:38:23;;;;;;;2.73;1.70;;;22.90;99.90;;;;;;4995295;28;20493;-77
2021/07/06 11:40:53;;;;;;;1.57;1.00;;;23.00;99.90;;;;;;4995280;28;20453;-77
2021/07/06 11:43:22;;;;;;;1.83;1.20;;;23.20;99.90;;;;;;4986468;28;20460;-78
2021/07/06 11:45:53;;;;;;;2.13;1.17;;;23.20;99.90;;;;;;4991942;28;20461;-79
2021/07/06 11:48:22;;;;;;;1.23;1.00;;;23.10;99.90;;;;;;4993468;28;20467;-78
2021/07/06 11:50:50;;;;;;;1.73;1.63;;;23.20;99.90;;;;;;4993867;28;20492;-77
2021/07/06 11:53:25;;;;;;;1.40;0.93;;;23.30;99.90;;;;;;4990630;28;20481;-77
2021/07/06 11:55:52;;;;;;;2.97;1.10;;;23.30;99.90;;;;;;4988875;28;20445;-76
2021/07/06 11:58:23;;;;;;;3.30;1.00;;;23.30;99.90;;;;;;4994091;28;20453;-79
2021/07/06 12:00:53;;;;;;;4.67;1.60;;;23.60;99.90;;;;;;4985359;28;20438;-76
2021/07/06 12:03:25;;;;;;;1.30;0.90;;;23.60;99.90;;;;;;4994276;28;20440;-77
2021/07/06 12:05:54;;;;;;;1.40;1.00;;;23.80;99.90;;;;;;4987637;28;20450;-78
2021/07/06 12:08:23;;;;;;;2.60;1.13;;;24.10;99.90;;;;;;4993048;28;20788;-78
2021/07/06 12:11:03;;;;;;;1.77;1.10;;;24.20;99.90;;;;;;4995440;28;20489;-76
2021/07/06 12:13:32;;;;;;;1.40;1.10;;;24.50;99.90;;;;;;4981857;28;20946;-77
2021/07/06 12:16:04;;;;;;;1.80;1.00;;;24.70;99.90;;;;;;4983161;28;20449;-76
2021/07/06 12:18:32;;;;;;;1.20;0.90;;;24.80;99.90;;;;;;4979375;28;20554;-77
2021/07/06 12:21:05;;;;;;;1.33;1.00;;;24.90;99.90;;;;;;4986681;28;20812;-78
2021/07/06 12:23:36;;;;;;;2.30;1.10;;;25.20;99.90;;;;;;4991761;28;20457;-78
2021/07/06 12:26:04;;;;;;;2.13;1.40;;;25.30;99.90;;;;;;4986243;28;20468;-77
2021/07/06 12:28:33;;;;;;;4.30;1.20;;;25.10;99.90;;;;;;4989942;28;21176;-79
2021/07/06 12:31:23;;;;;;;7.60;1.20;;;25.00;99.90;;;;;;4994226;28;20509;-78
2021/07/06 12:34:06;;;;;;;1.73;0.93;;;25.10;99.90;;;;;;4996398;28;20475;-79
2021/07/06 12:36:36;;;;;;;4.70;0.97;;;25.10;99.90;;;;;;4987117;28;20467;-77
2021/07/06 12:39:32;;;;;;;1.80;0.87;;;25.50;99.90;;;;;;4993279;28;20966;-78
2021/07/06 12:42:03;;;;;;;4.50;1.30;;;26.00;99.90;;;;;;4993873;28;20452;-79
2021/07/06 12:44:33;;;;;;;4.53;1.10;;;26.10;99.90;;;;;;4993811;28;20470;-78
2021/07/06 12:47:18;;;;;;;1.20;0.70;;;25.70;98.80;;;;;;4986904;28;20447;-79
2021/07/06 12:49:47;;;;;;;2.63;1.20;;;25.50;99.90;;;;;;4991826;28;20568;-80
2021/07/06 12:52:15;;;;;;;3.03;1.10;;;25.60;99.90;;;;;;4992336;28;20449;-77
2021/07/06 12:54:43;;;;;;;2.10;1.00;;;25.60;99.90;;;;;;4989464;28;20469;-79
2021/07/06 12:57:14;;;;;;;1.53;0.83;;;25.60;99.90;;;;;;4983966;28;20488;-77
2021/07/06 12:59:41;;;;;;;2.13;0.90;;;25.10;99.90;;;;;;4993268;28;20940;-78
2021/07/06 13:02:25;;;;;;;1.50;0.80;;;25.30;99.90;;;;;;4991709;28;20834;-78
2021/07/06 13:04:54;;;;;;;2.20;0.80;;;25.50;99.90;;;;;;4994278;28;20494;-79
2021/07/06 13:07:23;;;;;;;2.63;1.00;;;25.40;99.90;;;;;;4992862;28;20950;-76
2021/07/06 13:10:13;;;;;;;1.67;0.80;;;25.50;99.90;;;;;;4986981;28;20484;-77
2021/07/06 13:12:42;;;;;;;1.60;0.93;;;25.50;99.90;;;;;;4977736;28;20818;-78
2021/07/06 13:15:13;;;;;;;1.63;0.80;;;25.40;99.90;;;;;;4983311;28;20469;-77